sensor_id;sensor_type;location;lat;lon;timestamp;pressure;altitude;pressure_sealevel;temperature;humidity
22651;BME280;11492;42.646;23.400;2022-07-22T00:00:04;95099.03;;;21.69;52.69
22651;BME280;11492;42.646;23.400;2022-07-22T00:02:30;95095.44;;;21.75;52.94
22651;BME280;11492;42.646;23.400;2022-07-22T00:04:56;95103.31;;;21.75;52.68
22651;BME280;11492;42.646;23.400;2022-07-22T00:07:21;95099.91;;;21.74;52.47
22651;BME280;11492;42.646;23.400;2022-07-22T00:09:46;95098.53;;;21.72;52.68
22651;BME280;11492;42.646;23.400;2022-07-22T00:12:11;95099.25;;;21.68;52.73
22651;BME280;11492;42.646;23.400;2022-07-22T00:14:37;95109.56;;;21.69;53.07
22651;BME280;11492;42.646;23.400;2022-07-22T00:17:02;95117.66;;;21.68;53.11
22651;BME280;11492;42.646;23.400;2022-07-22T00:19:27;95112.34;;;21.63;53.32
22651;BME280;11492;42.646;23.400;2022-07-22T00:21:53;95109.63;;;21.58;53.69
22651;BME280;11492;42.646;23.400;2022-07-22T00:24:18;95116.66;;;21.52;53.64
22651;BME280;11492;42.646;23.400;2022-07-22T00:26:44;95120.84;;;21.49;54.03
22651;BME280;11492;42.646;23.400;2022-07-22T00:29:09;95117.81;;;21.40;54.33
22651;BME280;11492;42.646;23.400;2022-07-22T00:31:34;95115.09;;;21.35;54.29
22651;BME280;11492;42.646;23.400;2022-07-22T00:34:00;95112.41;;;21.30;54.80
22651;BME280;11492;42.646;23.400;2022-07-22T00:36:31;95111.63;;;21.30;54.94
22651;BME280;11492;42.646;23.400;2022-07-22T00:38:56;95112.91;;;21.27;54.77
22651;BME280;11492;42.646;23.400;2022-07-22T00:41:22;95114.63;;;21.22;55.18
22651;BME280;11492;42.646;23.400;2022-07-22T00:43:54;95119.22;;;21.15;55.32
22651;BME280;11492;42.646;23.400;2022-07-22T00:46:20;95112.56;;;21.08;55.67
22651;BME280;11492;42.646;23.400;2022-07-22T00:48:45;95113.03;;;21.05;55.68
22651;BME280;11492;42.646;23.400;2022-07-22T00:51:11;95115.28;;;20.97;55.87
22651;BME280;11492;42.646;23.400;2022-07-22T00:53:36;95120.28;;;20.98;55.92
22651;BME280;11492;42.646;23.400;2022-07-22T00:56:02;95118.13;;;20.95;55.71
22651;BME280;11492;42.646;23.400;2022-07-22T00:58:28;95106.91;;;20.99;55.16
22651;BME280;11492;42.646;23.400;2022-07-22T01:00:54;95107.47;;;21.01;55.41
22651;BME280;11492;42.646;23.400;2022-07-22T01:03:19;95111.97;;;21.06;54.94
22651;BME280;11492;42.646;23.400;2022-07-22T01:05:44;95111.13;;;21.00;55.26
22651;BME280;11492;42.646;23.400;2022-07-22T01:08:10;95102.69;;;20.98;55.43
22651;BME280;11492;42.646;23.400;2022-07-22T01:10:35;95110.97;;;20.91;55.54
22651;BME280;11492;42.646;23.400;2022-07-22T01:13:00;95102.06;;;20.92;55.83
22651;BME280;11492;42.646;23.400;2022-07-22T01:15:26;95104.44;;;20.93;55.98
22651;BME280;11492;42.646;23.400;2022-07-22T01:17:51;95101.56;;;20.95;56.18
22651;BME280;11492;42.646;23.400;2022-07-22T01:20:16;95109.22;;;20.96;56.34
22651;BME280;11492;42.646;23.400;2022-07-22T01:22:41;95112.31;;;20.93;56.33
22651;BME280;11492;42.646;23.400;2022-07-22T01:25:09;95112.31;;;20.77;56.88
22651;BME280;11492;42.646;23.400;2022-07-22T01:27:35;95111.59;;;20.65;57.18
22651;BME280;11492;42.646;23.400;2022-07-22T01:30:00;95108.91;;;20.76;57.11
22651;BME280;11492;42.646;23.400;2022-07-22T01:32:25;95110.94;;;20.58;57.46
22651;BME280;11492;42.646;23.400;2022-07-22T01:34:51;95104.59;;;20.71;57.55
22651;BME280;11492;42.646;23.400;2022-07-22T01:37:16;95098.84;;;20.73;57.33
22651;BME280;11492;42.646;23.400;2022-07-22T01:39:41;95104.44;;;20.77;57.22
22651;BME280;11492;42.646;23.400;2022-07-22T01:42:07;95103.94;;;20.64;57.42
22651;BME280;11492;42.646;23.400;2022-07-22T01:44:32;95106.34;;;20.65;57.47
22651;BME280;11492;42.646;23.400;2022-07-22T01:46:57;95099.47;;;20.64;57.48
22651;BME280;11492;42.646;23.400;2022-07-22T01:49:23;95107.25;;;20.59;57.56
22651;BME280;11492;42.646;23.400;2022-07-22T01:51:49;95112.59;;;20.64;57.42
22651;BME280;11492;42.646;23.400;2022-07-22T01:54:14;95111.97;;;20.57;57.43
22651;BME280;11492;42.646;23.400;2022-07-22T01:56:39;95110.47;;;20.61;57.36
22651;BME280;11492;42.646;23.400;2022-07-22T01:59:05;95111.53;;;20.49;57.92
22651;BME280;11492;42.646;23.400;2022-07-22T02:01:30;95116.25;;;20.36;58.46
22651;BME280;11492;42.646;23.400;2022-07-22T02:03:55;95107.91;;;20.50;57.92
22651;BME280;11492;42.646;23.400;2022-07-22T02:06:21;95113.47;;;20.53;57.87
22651;BME280;11492;42.646;23.400;2022-07-22T02:08:46;95112.13;;;20.51;58.13
22651;BME280;11492;42.646;23.400;2022-07-22T02:11:11;95108.69;;;20.50;57.88
22651;BME280;11492;42.646;23.400;2022-07-22T02:13:37;95116.22;;;20.47;58.07
22651;BME280;11492;42.646;23.400;2022-07-22T02:16:02;95123.19;;;20.42;58.33
22651;BME280;11492;42.646;23.400;2022-07-22T02:18:28;95120.56;;;20.42;58.35
22651;BME280;11492;42.646;23.400;2022-07-22T02:20:53;95122.56;;;20.35;58.67
22651;BME280;11492;42.646;23.400;2022-07-22T02:23:18;95124.38;;;20.34;58.47
22651;BME280;11492;42.646;23.400;2022-07-22T02:25:44;95125.97;;;20.35;58.39
22651;BME280;11492;42.646;23.400;2022-07-22T02:28:09;95134.00;;;20.29;58.66
22651;BME280;11492;42.646;23.400;2022-07-22T02:30:34;95132.84;;;20.25;58.80
22651;BME280;11492;42.646;23.400;2022-07-22T02:33:00;95132.28;;;20.23;59.04
22651;BME280;11492;42.646;23.400;2022-07-22T02:35:25;95137.09;;;20.15;58.96
22651;BME280;11492;42.646;23.400;2022-07-22T02:37:50;95133.09;;;20.12;59.06
22651;BME280;11492;42.646;23.400;2022-07-22T02:40:16;95134.72;;;20.13;59.52
22651;BME280;11492;42.646;23.400;2022-07-22T02:42:41;95133.09;;;20.12;59.35
22651;BME280;11492;42.646;23.400;2022-07-22T02:45:07;95129.13;;;20.10;59.35
22651;BME280;11492;42.646;23.400;2022-07-22T02:47:32;95128.25;;;20.04;59.49
22651;BME280;11492;42.646;23.400;2022-07-22T02:49:58;95129.72;;;20.00;59.53
22651;BME280;11492;42.646;23.400;2022-07-22T02:52:23;95133.75;;;19.92;59.53
22651;BME280;11492;42.646;23.400;2022-07-22T02:54:48;95128.78;;;19.79;59.84
22651;BME280;11492;42.646;23.400;2022-07-22T02:57:14;95134.47;;;19.76;59.85
22651;BME280;11492;42.646;23.400;2022-07-22T02:59:39;95139.84;;;19.70;59.96
22651;BME280;11492;42.646;23.400;2022-07-22T03:02:04;95141.53;;;19.64;60.64
22651;BME280;11492;42.646;23.400;2022-07-22T03:04:30;95133.44;;;19.54;60.52
22651;BME280;11492;42.646;23.400;2022-07-22T03:06:55;95134.81;;;19.57;60.37
22651;BME280;11492;42.646;23.400;2022-07-22T03:09:20;95132.88;;;19.64;60.25
22651;BME280;11492;42.646;23.400;2022-07-22T03:11:46;95135.03;;;19.67;60.11
22651;BME280;11492;42.646;23.400;2022-07-22T03:14:11;95130.16;;;19.70;60.27
22651;BME280;11492;42.646;23.400;2022-07-22T03:16:37;95128.09;;;19.72;59.59
22651;BME280;11492;42.646;23.400;2022-07-22T03:19:03;95131.38;;;19.79;59.55
22651;BME280;11492;42.646;23.400;2022-07-22T03:21:28;95130.25;;;19.75;59.72
22651;BME280;11492;42.646;23.400;2022-07-22T03:23:53;95130.47;;;19.62;59.95
22651;BME280;11492;42.646;23.400;2022-07-22T03:26:22;95120.44;;;19.71;59.47
22651;BME280;11492;42.646;23.400;2022-07-22T03:28:48;95131.03;;;19.75;59.32
22651;BME280;11492;42.646;23.400;2022-07-22T03:31:13;95132.06;;;19.74;59.67
22651;BME280;11492;42.646;23.400;2022-07-22T03:33:39;95129.34;;;19.70;59.74
22651;BME280;11492;42.646;23.400;2022-07-22T03:36:04;95130.59;;;19.67;59.65
22651;BME280;11492;42.646;23.400;2022-07-22T03:38:33;95138.91;;;19.64;59.67
22651;BME280;11492;42.646;23.400;2022-07-22T03:40:59;95136.03;;;19.66;60.08
22651;BME280;11492;42.646;23.400;2022-07-22T03:43:24;95146.75;;;19.64;59.65
22651;BME280;11492;42.646;23.400;2022-07-22T03:45:49;95136.19;;;19.71;59.76
22651;BME280;11492;42.646;23.400;2022-07-22T03:48:14;95143.34;;;19.75;59.34
22651;BME280;11492;42.646;23.400;2022-07-22T03:50:40;95148.03;;;19.73;59.48
22651;BME280;11492;42.646;23.400;2022-07-22T03:53:05;95149.63;;;19.74;59.19
22651;BME280;11492;42.646;23.400;2022-07-22T03:55:30;95148.59;;;19.75;59.56
22651;BME280;11492;42.646;23.400;2022-07-22T03:57:56;95141.63;;;19.80;59.34
22651;BME280;11492;42.646;23.400;2022-07-22T04:00:21;95153.59;;;19.88;59.37
22651;BME280;11492;42.646;23.400;2022-07-22T04:02:46;95152.56;;;19.89;59.04
22651;BME280;11492;42.646;23.400;2022-07-22T04:05:11;95151.28;;;19.91;59.22
22651;BME280;11492;42.646;23.400;2022-07-22T04:07:37;95154.72;;;19.92;59.33
22651;BME280;11492;42.646;23.400;2022-07-22T04:10:02;95151.88;;;19.93;59.29
22651;BME280;11492;42.646;23.400;2022-07-22T04:12:34;95155.41;;;19.98;59.36
22651;BME280;11492;42.646;23.400;2022-07-22T04:15:00;95163.88;;;19.78;59.90
22651;BME280;11492;42.646;23.400;2022-07-22T04:17:25;95165.25;;;19.69;60.22
22651;BME280;11492;42.646;23.400;2022-07-22T04:19:50;95162.88;;;19.68;60.22
22651;BME280;11492;42.646;23.400;2022-07-22T04:22:16;95164.66;;;19.56;60.78
22651;BME280;11492;42.646;23.400;2022-07-22T04:24:41;95165.00;;;19.59;60.93
22651;BME280;11492;42.646;23.400;2022-07-22T04:27:06;95163.66;;;19.68;60.79
22651;BME280;11492;42.646;23.400;2022-07-22T04:29:32;95165.47;;;19.79;60.67
22651;BME280;11492;42.646;23.400;2022-07-22T04:31:57;95168.84;;;19.91;60.38
22651;BME280;11492;42.646;23.400;2022-07-22T04:34:22;95175.06;;;20.12;59.68
22651;BME280;11492;42.646;23.400;2022-07-22T04:36:48;95169.88;;;20.28;59.70
22651;BME280;11492;42.646;23.400;2022-07-22T04:39:13;95178.59;;;20.29;59.70
22651;BME280;11492;42.646;23.400;2022-07-22T04:41:38;95171.47;;;20.41;59.39
22651;BME280;11492;42.646;23.400;2022-07-22T04:44:03;95176.44;;;20.53;59.44
22651;BME280;11492;42.646;23.400;2022-07-22T04:46:29;95175.38;;;20.66;58.98
22651;BME280;11492;42.646;23.400;2022-07-22T04:48:54;95169.59;;;20.80;59.22
22651;BME280;11492;42.646;23.400;2022-07-22T04:51:19;95179.25;;;20.91;59.11
22651;BME280;11492;42.646;23.400;2022-07-22T04:53:44;95177.44;;;21.07;58.81
22651;BME280;11492;42.646;23.400;2022-07-22T04:56:10;95181.50;;;21.15;58.55
22651;BME280;11492;42.646;23.400;2022-07-22T04:58:35;95185.50;;;21.17;58.19
22651;BME280;11492;42.646;23.400;2022-07-22T05:01:01;95188.31;;;21.27;57.36
22651;BME280;11492;42.646;23.400;2022-07-22T05:03:26;95180.44;;;21.27;57.70
22651;BME280;11492;42.646;23.400;2022-07-22T05:05:51;95188.69;;;21.35;57.50
22651;BME280;11492;42.646;23.400;2022-07-22T05:08:16;95191.94;;;21.42;57.30
22651;BME280;11492;42.646;23.400;2022-07-22T05:10:42;95191.56;;;21.50;57.03
22651;BME280;11492;42.646;23.400;2022-07-22T05:13:07;95189.00;;;21.55;56.99
22651;BME280;11492;42.646;23.400;2022-07-22T05:15:32;95188.84;;;21.61;56.95
22651;BME280;11492;42.646;23.400;2022-07-22T05:17:58;95184.16;;;21.63;56.68
22651;BME280;11492;42.646;23.400;2022-07-22T05:20:23;95187.41;;;21.70;56.87
22651;BME280;11492;42.646;23.400;2022-07-22T05:22:48;95184.34;;;21.78;56.40
22651;BME280;11492;42.646;23.400;2022-07-22T05:25:14;95185.00;;;21.85;55.92
22651;BME280;11492;42.646;23.400;2022-07-22T05:27:48;95188.47;;;21.90;55.89
22651;BME280;11492;42.646;23.400;2022-07-22T05:30:14;95188.16;;;22.03;55.48
22651;BME280;11492;42.646;23.400;2022-07-22T05:32:39;95190.13;;;22.12;55.33
22651;BME280;11492;42.646;23.400;2022-07-22T05:35:04;95193.94;;;22.21;55.35
22651;BME280;11492;42.646;23.400;2022-07-22T05:37:30;95194.00;;;22.26;54.93
22651;BME280;11492;42.646;23.400;2022-07-22T05:39:55;95193.47;;;22.29;54.66
22651;BME280;11492;42.646;23.400;2022-07-22T05:42:20;95199.31;;;22.31;54.00
22651;BME280;11492;42.646;23.400;2022-07-22T05:44:45;95197.28;;;22.38;54.36
22651;BME280;11492;42.646;23.400;2022-07-22T05:47:11;95187.94;;;22.47;54.36
22651;BME280;11492;42.646;23.400;2022-07-22T05:49:36;95192.78;;;22.59;54.39
22651;BME280;11492;42.646;23.400;2022-07-22T05:52:02;95193.97;;;22.68;53.69
22651;BME280;11492;42.646;23.400;2022-07-22T05:54:28;95186.19;;;22.78;53.44
22651;BME280;11492;42.646;23.400;2022-07-22T05:56:53;95189.47;;;22.90;52.33
22651;BME280;11492;42.646;23.400;2022-07-22T05:59:18;95191.63;;;22.98;52.43
22651;BME280;11492;42.646;23.400;2022-07-22T06:01:44;95186.94;;;23.00;51.89
22651;BME280;11492;42.646;23.400;2022-07-22T06:04:09;95191.75;;;23.07;52.04
22651;BME280;11492;42.646;23.400;2022-07-22T06:06:34;95183.13;;;23.17;52.38
22651;BME280;11492;42.646;23.400;2022-07-22T06:09:00;95188.19;;;23.23;51.63
22651;BME280;11492;42.646;23.400;2022-07-22T06:11:25;95191.72;;;23.33;51.33
22651;BME280;11492;42.646;23.400;2022-07-22T06:13:50;95197.34;;;23.42;51.00
22651;BME280;11492;42.646;23.400;2022-07-22T06:16:16;95187.97;;;23.55;51.21
22651;BME280;11492;42.646;23.400;2022-07-22T06:18:41;95190.41;;;23.62;50.78
22651;BME280;11492;42.646;23.400;2022-07-22T06:21:06;95192.78;;;23.63;50.83
22651;BME280;11492;42.646;23.400;2022-07-22T06:23:32;95187.06;;;23.76;50.98
22651;BME280;11492;42.646;23.400;2022-07-22T06:25:58;95182.91;;;23.90;50.58
22651;BME280;11492;42.646;23.400;2022-07-22T06:28:23;95187.75;;;24.02;50.19
22651;BME280;11492;42.646;23.400;2022-07-22T06:30:48;95188.66;;;24.18;49.76
22651;BME280;11492;42.646;23.400;2022-07-22T06:33:14;95194.25;;;24.31;50.00
22651;BME280;11492;42.646;23.400;2022-07-22T06:35:39;95192.22;;;24.43;49.56
22651;BME280;11492;42.646;23.400;2022-07-22T06:38:05;95185.94;;;24.53;49.39
22651;BME280;11492;42.646;23.400;2022-07-22T06:40:30;95181.72;;;24.67;48.96
22651;BME280;11492;42.646;23.400;2022-07-22T06:42:56;95180.50;;;24.79;48.96
22651;BME280;11492;42.646;23.400;2022-07-22T06:45:21;95178.09;;;24.88;48.38
22651;BME280;11492;42.646;23.400;2022-07-22T06:47:46;95186.06;;;24.98;48.38
22651;BME280;11492;42.646;23.400;2022-07-22T06:50:11;95180.81;;;25.12;47.88
22651;BME280;11492;42.646;23.400;2022-07-22T06:52:40;95182.91;;;25.25;47.40
22651;BME280;11492;42.646;23.400;2022-07-22T06:55:05;95180.84;;;25.37;47.39
22651;BME280;11492;42.646;23.400;2022-07-22T06:57:31;95185.63;;;25.50;47.10
22651;BME280;11492;42.646;23.400;2022-07-22T06:59:56;95179.53;;;25.64;46.80
22651;BME280;11492;42.646;23.400;2022-07-22T07:02:21;95184.03;;;25.73;46.32
22651;BME280;11492;42.646;23.400;2022-07-22T07:04:46;95180.31;;;25.84;45.80
22651;BME280;11492;42.646;23.400;2022-07-22T07:07:12;95184.50;;;25.95;45.32
22651;BME280;11492;42.646;23.400;2022-07-22T07:09:37;95186.59;;;26.02;44.55
22651;BME280;11492;42.646;23.400;2022-07-22T07:12:02;95185.53;;;26.13;44.39
22651;BME280;11492;42.646;23.400;2022-07-22T07:14:28;95181.28;;;26.27;44.49
22651;BME280;11492;42.646;23.400;2022-07-22T07:16:53;95184.94;;;26.41;43.97
22651;BME280;11492;42.646;23.400;2022-07-22T07:19:18;95179.06;;;26.53;44.07
22651;BME280;11492;42.646;23.400;2022-07-22T07:21:45;95188.31;;;26.71;43.25
22651;BME280;11492;42.646;23.400;2022-07-22T07:24:10;95184.25;;;26.83;43.33
22651;BME280;11492;42.646;23.400;2022-07-22T07:26:36;95190.03;;;26.90;42.12
22651;BME280;11492;42.646;23.400;2022-07-22T07:29:01;95188.38;;;27.03;41.82
22651;BME280;11492;42.646;23.400;2022-07-22T07:31:27;95183.03;;;27.08;40.73
22651;BME280;11492;42.646;23.400;2022-07-22T07:33:52;95183.28;;;27.12;41.00
22651;BME280;11492;42.646;23.400;2022-07-22T07:36:19;95190.38;;;27.26;40.14
22651;BME280;11492;42.646;23.400;2022-07-22T07:38:44;95181.84;;;27.34;40.13
22651;BME280;11492;42.646;23.400;2022-07-22T07:41:09;95181.28;;;27.37;40.13
22651;BME280;11492;42.646;23.400;2022-07-22T07:43:35;95181.44;;;27.50;40.40
22651;BME280;11492;42.646;23.400;2022-07-22T07:46:00;95190.59;;;27.67;39.86
22651;BME280;11492;42.646;23.400;2022-07-22T07:48:25;95185.16;;;27.82;39.10
22651;BME280;11492;42.646;23.400;2022-07-22T07:50:51;95187.44;;;27.93;38.58
22651;BME280;11492;42.646;23.400;2022-07-22T07:53:16;95186.47;;;28.12;38.26
22651;BME280;11492;42.646;23.400;2022-07-22T07:55:42;95187.59;;;28.29;38.12
22651;BME280;11492;42.646;23.400;2022-07-22T07:58:08;95184.59;;;28.41;37.28
22651;BME280;11492;42.646;23.400;2022-07-22T08:00:33;95184.88;;;28.62;37.18
22651;BME280;11492;42.646;23.400;2022-07-22T08:03:00;95180.94;;;28.78;36.64
22651;BME280;11492;42.646;23.400;2022-07-22T08:05:25;95182.16;;;28.85;36.27
22651;BME280;11492;42.646;23.400;2022-07-22T08:07:51;95189.97;;;29.18;35.48
22651;BME280;11492;42.646;23.400;2022-07-22T08:10:17;95179.69;;;29.66;34.23
22651;BME280;11492;42.646;23.400;2022-07-22T08:12:42;95180.81;;;30.10;33.90
22651;BME280;11492;42.646;23.400;2022-07-22T08:15:08;95185.22;;;30.72;32.99
22651;BME280;11492;42.646;23.400;2022-07-22T08:17:33;95179.47;;;30.92;32.70
22651;BME280;11492;42.646;23.400;2022-07-22T08:19:59;95179.69;;;30.95;32.36
22651;BME280;11492;42.646;23.400;2022-07-22T08:22:24;95183.97;;;31.05;32.18
22651;BME280;11492;42.646;23.400;2022-07-22T08:24:49;95185.59;;;31.06;32.23
22651;BME280;11492;42.646;23.400;2022-07-22T08:27:15;95186.66;;;31.05;31.92
22651;BME280;11492;42.646;23.400;2022-07-22T08:29:40;95192.50;;;31.20;32.23
22651;BME280;11492;42.646;23.400;2022-07-22T08:32:05;95189.94;;;31.02;31.78
22651;BME280;11492;42.646;23.400;2022-07-22T08:34:31;95187.34;;;31.10;31.86
22651;BME280;11492;42.646;23.400;2022-07-22T08:36:56;95185.91;;;31.39;31.26
22651;BME280;11492;42.646;23.400;2022-07-22T08:39:21;95191.28;;;31.82;31.02
22651;BME280;11492;42.646;23.400;2022-07-22T08:41:46;95188.13;;;32.23;30.54
22651;BME280;11492;42.646;23.400;2022-07-22T08:44:12;95184.53;;;32.28;30.81
22651;BME280;11492;42.646;23.400;2022-07-22T08:46:37;95190.41;;;32.38;30.08
22651;BME280;11492;42.646;23.400;2022-07-22T08:49:03;95186.63;;;32.39;30.15
22651;BME280;11492;42.646;23.400;2022-07-22T08:51:28;95187.00;;;32.54;29.21
22651;BME280;11492;42.646;23.400;2022-07-22T08:53:54;95192.28;;;32.67;30.31
22651;BME280;11492;42.646;23.400;2022-07-22T08:56:19;95186.38;;;32.19;30.88
22651;BME280;11492;42.646;23.400;2022-07-22T08:58:45;95188.22;;;32.40;29.48
22651;BME280;11492;42.646;23.400;2022-07-22T09:01:12;95188.09;;;32.83;29.59
22651;BME280;11492;42.646;23.400;2022-07-22T09:06:10;95193.88;;;33.23;28.65
22651;BME280;11492;42.646;23.400;2022-07-22T09:11:19;95196.19;;;33.08;28.48
22651;BME280;11492;42.646;23.400;2022-07-22T09:13:45;95182.22;;;33.36;28.11
22651;BME280;11492;42.646;23.400;2022-07-22T09:16:11;95194.53;;;33.54;29.33
22651;BME280;11492;42.646;23.400;2022-07-22T09:18:46;95198.34;;;33.69;28.05
22651;BME280;11492;42.646;23.400;2022-07-22T09:21:12;95200.56;;;33.67;27.33
22651;BME280;11492;42.646;23.400;2022-07-22T09:23:39;95192.50;;;34.01;27.81
22651;BME280;11492;42.646;23.400;2022-07-22T09:26:05;95191.13;;;34.48;27.14
22651;BME280;11492;42.646;23.400;2022-07-22T09:28:31;95194.00;;;34.80;26.93
22651;BME280;11492;42.646;23.400;2022-07-22T09:30:56;95189.38;;;34.52;26.52
22651;BME280;11492;42.646;23.400;2022-07-22T09:33:21;95182.72;;;34.50;26.77
22651;BME280;11492;42.646;23.400;2022-07-22T09:35:47;95185.59;;;34.90;26.74
22651;BME280;11492;42.646;23.400;2022-07-22T09:38:15;95183.66;;;35.27;26.32
22651;BME280;11492;42.646;23.400;2022-07-22T09:40:41;95180.28;;;35.59;26.25
22651;BME280;11492;42.646;23.400;2022-07-22T09:43:11;95182.81;;;35.75;25.80
22651;BME280;11492;42.646;23.400;2022-07-22T09:45:50;95183.88;;;35.63;25.68
22651;BME280;11492;42.646;23.400;2022-07-22T09:48:17;95183.34;;;35.69;26.07
22651;BME280;11492;42.646;23.400;2022-07-22T09:50:43;95176.22;;;35.53;26.02
22651;BME280;11492;42.646;23.400;2022-07-22T09:53:08;95178.78;;;35.21;25.60
22651;BME280;11492;42.646;23.400;2022-07-22T09:55:34;95170.13;;;35.15;26.53
22651;BME280;11492;42.646;23.400;2022-07-22T09:58:03;95178.63;;;35.46;26.46
22651;BME280;11492;42.646;23.400;2022-07-22T10:00:28;95180.31;;;35.30;25.90
22651;BME280;11492;42.646;23.400;2022-07-22T10:02:55;95172.25;;;35.70;26.33
22651;BME280;11492;42.646;23.400;2022-07-22T10:05:25;95172.94;;;35.67;25.52
22651;BME280;11492;42.646;23.400;2022-07-22T10:07:52;95168.81;;;36.02;25.21
22651;BME280;11492;42.646;23.400;2022-07-22T10:10:21;95177.28;;;36.44;25.55
22651;BME280;11492;42.646;23.400;2022-07-22T10:12:47;95173.13;;;36.58;25.43
22651;BME280;11492;42.646;23.400;2022-07-22T10:15:13;95173.84;;;36.23;25.32
22651;BME280;11492;42.646;23.400;2022-07-22T10:17:41;95170.69;;;36.21;25.14
22651;BME280;11492;42.646;23.400;2022-07-22T10:20:07;95171.91;;;35.92;25.40
22651;BME280;11492;42.646;23.400;2022-07-22T10:25:05;95157.91;;;36.18;25.06
22651;BME280;11492;42.646;23.400;2022-07-22T10:27:43;95158.13;;;36.25;25.04
22651;BME280;11492;42.646;23.400;2022-07-22T10:30:09;95159.34;;;36.71;25.57
22651;BME280;11492;42.646;23.400;2022-07-22T10:32:34;95163.19;;;37.06;25.07
22651;BME280;11492;42.646;23.400;2022-07-22T10:45:18;95145.09;;;37.57;24.28
22651;BME280;11492;42.646;23.400;2022-07-22T10:50:42;95155.44;;;37.78;23.92
22651;BME280;11492;42.646;23.400;2022-07-22T10:53:09;95150.41;;;37.92;23.68
22651;BME280;11492;42.646;23.400;2022-07-22T10:55:35;95150.22;;;38.12;23.58
22651;BME280;11492;42.646;23.400;2022-07-22T10:58:23;95152.59;;;38.29;22.68
22651;BME280;11492;42.646;23.400;2022-07-22T11:00:46;95148.25;;;38.40;22.64
22651;BME280;11492;42.646;23.400;2022-07-22T11:03:11;95150.16;;;38.39;23.15
22651;BME280;11492;42.646;23.400;2022-07-22T11:05:37;95145.63;;;38.43;22.89
22651;BME280;11492;42.646;23.400;2022-07-22T11:08:02;95149.38;;;38.39;22.72
22651;BME280;11492;42.646;23.400;2022-07-22T11:10:33;95144.97;;;38.46;22.87
22651;BME280;11492;42.646;23.400;2022-07-22T11:12:58;95147.41;;;38.51;22.65
22651;BME280;11492;42.646;23.400;2022-07-22T11:15:27;95135.97;;;38.42;22.66
22651;BME280;11492;42.646;23.400;2022-07-22T11:17:55;95143.72;;;38.28;23.07
22651;BME280;11492;42.646;23.400;2022-07-22T11:20:21;95144.75;;;38.39;22.67
22651;BME280;11492;42.646;23.400;2022-07-22T11:22:46;95135.28;;;38.60;22.74
22651;BME280;11492;42.646;23.400;2022-07-22T11:25:12;95148.28;;;38.70;23.08
22651;BME280;11492;42.646;23.400;2022-07-22T11:27:37;95144.44;;;38.71;22.69
22651;BME280;11492;42.646;23.400;2022-07-22T11:30:03;95145.47;;;38.36;22.32
22651;BME280;11492;42.646;23.400;2022-07-22T11:32:29;95140.47;;;38.23;23.62
22651;BME280;11492;42.646;23.400;2022-07-22T11:34:56;95137.09;;;38.41;22.56
22651;BME280;11492;42.646;23.400;2022-07-22T11:37:22;95137.72;;;38.65;22.98
22651;BME280;11492;42.646;23.400;2022-07-22T11:39:48;95132.06;;;38.70;22.32
22651;BME280;11492;42.646;23.400;2022-07-22T11:42:14;95131.28;;;38.69;22.65
22651;BME280;11492;42.646;23.400;2022-07-22T11:44:39;95135.28;;;38.60;22.08
22651;BME280;11492;42.646;23.400;2022-07-22T11:47:05;95139.06;;;38.56;21.63
22651;BME280;11492;42.646;23.400;2022-07-22T11:49:32;95138.34;;;38.59;22.06
22651;BME280;11492;42.646;23.400;2022-07-22T11:51:59;95136.06;;;38.61;21.38
22651;BME280;11492;42.646;23.400;2022-07-22T11:54:24;95128.31;;;38.59;21.85
22651;BME280;11492;42.646;23.400;2022-07-22T11:56:49;95130.16;;;38.70;21.67
22651;BME280;11492;42.646;23.400;2022-07-22T11:59:15;95131.13;;;38.78;22.08
22651;BME280;11492;42.646;23.400;2022-07-22T12:01:42;95136.53;;;38.78;21.38
22651;BME280;11492;42.646;23.400;2022-07-22T12:04:09;95126.38;;;38.90;21.27
22651;BME280;11492;42.646;23.400;2022-07-22T12:06:35;95122.91;;;38.90;21.44
22651;BME280;11492;42.646;23.400;2022-07-22T12:09:08;95131.03;;;38.74;21.66
22651;BME280;11492;42.646;23.400;2022-07-22T12:11:34;95126.34;;;38.71;21.94
22651;BME280;11492;42.646;23.400;2022-07-22T12:14:05;95123.69;;;38.75;21.75
22651;BME280;11492;42.646;23.400;2022-07-22T12:16:31;95124.41;;;38.87;22.03
22651;BME280;11492;42.646;23.400;2022-07-22T12:18:57;95114.63;;;38.98;21.88
22651;BME280;11492;42.646;23.400;2022-07-22T12:21:24;95119.16;;;38.94;21.45
22651;BME280;11492;42.646;23.400;2022-07-22T12:23:50;95117.56;;;38.93;21.65
22651;BME280;11492;42.646;23.400;2022-07-22T12:26:16;95115.19;;;38.92;21.96
22651;BME280;11492;42.646;23.400;2022-07-22T12:28:41;95116.63;;;38.86;21.96
22651;BME280;11492;42.646;23.400;2022-07-22T12:31:07;95108.09;;;38.69;21.39
22651;BME280;11492;42.646;23.400;2022-07-22T12:33:32;95114.38;;;38.72;21.52
22651;BME280;11492;42.646;23.400;2022-07-22T12:36:01;95112.47;;;38.73;21.28
22651;BME280;11492;42.646;23.400;2022-07-22T12:38:28;95111.06;;;38.64;21.28
22651;BME280;11492;42.646;23.400;2022-07-22T12:40:54;95101.63;;;38.43;21.28
22651;BME280;11492;42.646;23.400;2022-07-22T12:43:23;95101.19;;;38.25;21.27
22651;BME280;11492;42.646;23.400;2022-07-22T12:45:48;95108.66;;;38.17;21.46
22651;BME280;11492;42.646;23.400;2022-07-22T12:48:13;95104.44;;;38.04;21.23
22651;BME280;11492;42.646;23.400;2022-07-22T12:50:43;95105.03;;;37.97;22.21
22651;BME280;11492;42.646;23.400;2022-07-22T12:53:13;95101.31;;;38.02;21.13
22651;BME280;11492;42.646;23.400;2022-07-22T12:55:39;95098.31;;;37.92;21.16
22651;BME280;11492;42.646;23.400;2022-07-22T12:58:05;95098.31;;;37.92;21.97
22651;BME280;11492;42.646;23.400;2022-07-22T13:00:35;95102.50;;;37.89;20.96
22651;BME280;11492;42.646;23.400;2022-07-22T13:03:00;95110.03;;;37.68;21.11